BAW24M EGLL-LPFR
Flight info
| Callsign | BAW24M |
|---|---|
| Flight time | N/A |
| Altitude | 35000 |
| Route | GOGSI N621 SAM M195 LORKU DCT BALDA/N0450F370 DCT ABUPI DCT MOMAS DCT SOTEX |
| Aircraft | A320/M-SDE3FGHIRWY/LB1 |
Departure
| Time | 2026-05-04 15:34 |
|---|---|
| Airport | London Heathrow Airport (EGLL) |
Arrival
| Time | N/A |
|---|---|
| Airport | Faro - Gago Coutinho International Airport (LPFR) |
| Time | Latitude | Longitude | Altitude | Speed | Heading |
|---|---|---|---|---|---|
| 2026-05-04 14:59 | 51.47316 | -0.48583 | 85 ft | 0 kts | 268° |
| 2026-05-04 15:19 | 51.47316 | -0.48560 | 88 ft | 4 kts | 271° |
| 2026-05-04 15:19 | 51.47313 | -0.48518 | 85 ft | 4 kts | 286° |
| 2026-05-04 15:19 | 51.47292 | -0.48477 | 88 ft | 0 kts | 1° |
| 2026-05-04 15:24 | 51.47325 | -0.48475 | 85 ft | 4 kts | 2° |
| 2026-05-04 15:24 | 51.47429 | -0.48477 | 85 ft | 11 kts | 360° |
| 2026-05-04 15:25 | 51.47512 | -0.48479 | 85 ft | 13 kts | 359° |
| 2026-05-04 15:25 | 51.47575 | -0.48414 | 89 ft | 10 kts | 73° |
| 2026-05-04 15:25 | 51.47579 | -0.48296 | 91 ft | 12 kts | 89° |
| 2026-05-04 15:26 | 51.47581 | -0.47977 | 89 ft | 17 kts | 90° |
| 2026-05-04 15:26 | 51.47582 | -0.47783 | 86 ft | 17 kts | 89° |
| 2026-05-04 15:26 | 51.47583 | -0.47419 | 87 ft | 16 kts | 90° |
| 2026-05-04 15:27 | 51.47583 | -0.47228 | 90 ft | 18 kts | 90° |
| 2026-05-04 15:27 | 51.47588 | -0.46831 | 91 ft | 19 kts | 82° |
| 2026-05-04 15:28 | 51.47594 | -0.46460 | 89 ft | 19 kts | 89° |
| 2026-05-04 15:28 | 51.47595 | -0.46232 | 89 ft | 20 kts | 90° |
| 2026-05-04 15:28 | 51.47596 | -0.45764 | 87 ft | 21 kts | 89° |
| 2026-05-04 15:29 | 51.47597 | -0.45522 | 85 ft | 23 kts | 90° |
| 2026-05-04 15:30 | 51.47600 | -0.44500 | 88 ft | 26 kts | 89° |
| 2026-05-04 15:30 | 51.47594 | -0.43857 | 85 ft | 0 kts | 89° |
| 2026-05-04 15:31 | 51.47594 | -0.43797 | 86 ft | 9 kts | 89° |
| 2026-05-04 15:31 | 51.47595 | -0.43686 | 87 ft | 11 kts | 89° |
| 2026-05-04 15:32 | 51.47621 | -0.43532 | 89 ft | 7 kts | 52° |
| 2026-05-04 15:32 | 51.47753 | -0.43467 | 90 ft | 15 kts | 308° |
| 2026-05-04 15:33 | 51.47763 | -0.44470 | 89 ft | 100 kts | 270° |
| 2026-05-04 15:34 | 51.47734 | -0.49579 | 826 ft | 174 kts | 272° |
| 2026-05-04 15:34 | 51.47716 | -0.51571 | 1454 ft | 185 kts | 270° |
| 2026-05-04 15:34 | 51.47590 | -0.56037 | 2530 ft | 220 kts | 260° |